CMP760 SPJC-MPTO
Flight info
| Callsign | CMP760 |
|---|---|
| Flight time | 3h 10m |
| Altitude | 34000 |
| Route | TELE2F ATATU UM674 TOKUT |
| Aircraft | B738/M-SDE3FGHIRWY/S |
Departure
| Time | 2026-05-05 00:01 |
|---|---|
| Airport | Jorge Chávez International Airport (SPJC) |
Arrival
| Time | 2026-05-05 03:11 |
|---|---|
| Airport | Tocumen International Airport (MPTO) |
| Time | Latitude | Longitude | Altitude | Speed | Heading |
|---|---|---|---|---|---|
| 2026-05-04 23:26 | -12.03088 | -77.11870 | 83 ft | 0 kts | 64° |
| 2026-05-04 23:51 | -12.03089 | -77.11871 | 83 ft | 2 kts | 64° |
| 2026-05-04 23:51 | -12.03101 | -77.11895 | 74 ft | 4 kts | 53° |
| 2026-05-04 23:51 | -12.03119 | -77.11911 | 75 ft | 4 kts | 5° |
| 2026-05-04 23:52 | -12.03130 | -77.11910 | 73 ft | 2 kts | 333° |
| 2026-05-04 23:54 | -12.03129 | -77.11910 | 68 ft | 1 kts | 333° |
| 2026-05-04 23:55 | -12.03101 | -77.11925 | 67 ft | 9 kts | 333° |
| 2026-05-04 23:55 | -12.03024 | -77.11963 | 69 ft | 16 kts | 335° |
| 2026-05-04 23:55 | -12.02850 | -77.12124 | 56 ft | 20 kts | 334° |
| 2026-05-04 23:56 | -12.02717 | -77.12190 | 57 ft | 22 kts | 334° |
| 2026-05-04 23:56 | -12.02572 | -77.12261 | 56 ft | 24 kts | 334° |
| 2026-05-04 23:56 | -12.02413 | -77.12339 | 49 ft | 27 kts | 335° |
| 2026-05-04 23:56 | -12.02237 | -77.12425 | 48 ft | 29 kts | 334° |
| 2026-05-04 23:57 | -12.02058 | -77.12515 | 43 ft | 28 kts | 334° |
| 2026-05-04 23:57 | -12.01887 | -77.12598 | 43 ft | 26 kts | 334° |
| 2026-05-04 23:57 | -12.01728 | -77.12678 | 45 ft | 25 kts | 334° |
| 2026-05-04 23:57 | -12.01578 | -77.12750 | 38 ft | 23 kts | 335° |
| 2026-05-04 23:58 | -12.01436 | -77.12820 | 39 ft | 22 kts | 333° |
| 2026-05-04 23:58 | -12.01298 | -77.12889 | 38 ft | 22 kts | 334° |
| 2026-05-04 23:58 | -12.01159 | -77.12944 | 37 ft | 21 kts | 334° |
| 2026-05-04 23:58 | -12.01030 | -77.13011 | 36 ft | 20 kts | 335° |
| 2026-05-04 23:59 | -12.00904 | -77.13071 | 35 ft | 19 kts | 333° |
| 2026-05-04 23:59 | -12.00785 | -77.13130 | 34 ft | 18 kts | 335° |
| 2026-05-04 23:59 | -12.00675 | -77.13183 | 34 ft | 17 kts | 334° |
| 2026-05-04 23:59 | -12.00640 | -77.13273 | 33 ft | 16 kts | 243° |
| 2026-05-05 00:00 | -12.00708 | -77.13352 | 33 ft | 16 kts | 180° |
| 2026-05-05 00:00 | -12.00742 | -77.13339 | 32 ft | 15 kts | 155° |
| 2026-05-05 00:00 | -12.01286 | -77.13070 | 35 ft | 109 kts | 154° |
| 2026-05-05 00:00 | -12.02161 | -77.12645 | 51 ft | 166 kts | 155° |
| 2026-05-05 00:01 | -12.03234 | -77.12126 | 634 ft | 179 kts | 154° |
| 2026-05-05 00:01 | -12.04401 | -77.11531 | 1264 ft | 195 kts | 155° |
| 2026-05-05 00:01 | -12.05816 | -77.11299 | 1480 ft | 223 kts | 194° |
| 2026-05-05 00:01 | -12.07218 | -77.12064 | 1920 ft | 234 kts | 213° |
| 2026-05-05 00:02 | -12.08651 | -77.12910 | 2486 ft | 244 kts | 207° |
| 2026-05-05 00:02 | -12.10233 | -77.13721 | 2916 ft | 262 kts | 205° |
| 2026-05-05 00:02 | -12.11909 | -77.14521 | 3688 ft | 268 kts | 204° |
| 2026-05-05 00:02 | -12.13602 | -77.15350 | 4514 ft | 273 kts | 212° |
| 2026-05-05 00:03 | -12.14916 | -77.16737 | 5344 ft | 276 kts | 242° |
| 2026-05-05 00:03 | -12.15440 | -77.18634 | 6126 ft | 281 kts | 267° |
| 2026-05-05 00:03 | -12.15419 | -77.20644 | 6889 ft | 285 kts | 272° |
| 2026-05-05 00:03 | -12.15332 | -77.22681 | 7665 ft | 288 kts | 273° |
| 2026-05-05 00:04 | -12.15235 | -77.24735 | 8431 ft | 291 kts | 277° |
| 2026-05-05 00:04 | -12.14593 | -77.26678 | 9136 ft | 292 kts | 304° |
| 2026-05-05 00:04 | -12.13194 | -77.28171 | 9846 ft | 294 kts | 323° |
| 2026-05-05 00:04 | -12.11508 | -77.29396 | 10399 ft | 304 kts | 326° |
| 2026-05-05 00:05 | -12.09681 | -77.30650 | 10554 ft | 327 kts | 326° |
| 2026-05-05 00:05 | -12.07726 | -77.31979 | 10754 ft | 347 kts | 326° |
| 2026-05-05 00:05 | -12.05694 | -77.33368 | 11220 ft | 355 kts | 326° |
| 2026-05-05 00:05 | -12.03633 | -77.34788 | 11849 ft | 359 kts | 326° |
| 2026-05-05 00:06 | -12.01562 | -77.36223 | 12497 ft | 361 kts | 326° |
| 2026-05-05 00:06 | -11.99474 | -77.37676 | 13108 ft | 365 kts | 326° |
| 2026-05-05 00:06 | -11.97369 | -77.39144 | 13744 ft | 367 kts | 326° |
| 2026-05-05 00:06 | -11.95253 | -77.40622 | 14368 ft | 370 kts | 326° |
| 2026-05-05 00:07 | -11.93152 | -77.42089 | 14941 ft | 373 kts | 326° |
| 2026-05-05 00:07 | -11.90996 | -77.43595 | 15469 ft | 377 kts | 326° |
| 2026-05-05 00:07 | -11.88817 | -77.45118 | 15992 ft | 382 kts | 326° |
| 2026-05-05 00:07 | -11.86618 | -77.46653 | 16550 ft | 384 kts | 326° |
| 2026-05-05 00:08 | -11.84404 | -77.48200 | 17106 ft | 387 kts | 326° |
| 2026-05-05 00:08 | -11.82173 | -77.49759 | 17636 ft | 390 kts | 327° |
| 2026-05-05 00:08 | -11.79924 | -77.51328 | 18141 ft | 393 kts | 327° |
| 2026-05-05 00:08 | -11.77653 | -77.52909 | 18642 ft | 396 kts | 327° |
| 2026-05-05 00:09 | -11.75318 | -77.54427 | 19113 ft | 399 kts | 329° |
| 2026-05-05 00:09 | -11.72928 | -77.55894 | 19568 ft | 403 kts | 330° |
| 2026-05-05 00:09 | -11.70504 | -77.57354 | 20009 ft | 406 kts | 330° |
| 2026-05-05 00:09 | -11.68061 | -77.58824 | 20448 ft | 409 kts | 330° |
| 2026-05-05 00:10 | -11.65604 | -77.60309 | 20874 ft | 412 kts | 330° |
| 2026-05-05 00:10 | -11.63132 | -77.61813 | 21290 ft | 415 kts | 330° |
| 2026-05-05 00:10 | -11.60645 | -77.63330 | 21683 ft | 418 kts | 330° |
| 2026-05-05 00:10 | -11.58136 | -77.64865 | 22077 ft | 421 kts | 329° |
| 2026-05-05 00:11 | -11.56441 | -77.65903 | 22333 ft | 423 kts | 329° |
| 2026-05-05 00:11 | -11.53945 | -77.67434 | 22690 ft | 426 kts | 329° |
| 2026-05-05 00:11 | -11.51399 | -77.68994 | 23048 ft | 428 kts | 329° |
| 2026-05-05 00:11 | -11.48836 | -77.70565 | 23391 ft | 431 kts | 329° |
| 2026-05-05 00:12 | -11.46260 | -77.72143 | 23722 ft | 433 kts | 329° |
| 2026-05-05 00:12 | -11.43670 | -77.73730 | 24051 ft | 436 kts | 329° |
| 2026-05-05 00:12 | -11.41064 | -77.75325 | 24370 ft | 438 kts | 329° |
| 2026-05-05 00:12 | -11.38446 | -77.76928 | 24714 ft | 440 kts | 329° |
| 2026-05-05 00:13 | -11.35821 | -77.78535 | 25069 ft | 441 kts | 329° |
| 2026-05-05 00:13 | -11.33189 | -77.80147 | 25394 ft | 442 kts | 330° |
| 2026-05-05 00:13 | -11.30548 | -77.81762 | 25710 ft | 444 kts | 330° |
| 2026-05-05 00:13 | -11.27896 | -77.83385 | 26038 ft | 445 kts | 330° |
| 2026-05-05 00:14 | -11.25236 | -77.85012 | 26370 ft | 446 kts | 330° |
| 2026-05-05 00:14 | -11.22573 | -77.86640 | 26665 ft | 448 kts | 330° |
| 2026-05-05 00:14 | -11.19899 | -77.88274 | 26962 ft | 449 kts | 330° |
| 2026-05-05 00:14 | -11.17216 | -77.89915 | 27242 ft | 450 kts | 330° |
| 2026-05-05 00:15 | -11.14525 | -77.91560 | 27533 ft | 452 kts | 330° |
| 2026-05-05 00:15 | -11.11828 | -77.93208 | 27801 ft | 453 kts | 330° |
| 2026-05-05 00:15 | -11.09118 | -77.94862 | 28079 ft | 454 kts | 330° |
| 2026-05-05 00:15 | -11.06324 | -77.96350 | 28316 ft | 454 kts | 342° |
| 2026-05-05 00:16 | -11.03237 | -77.96985 | 28553 ft | 453 kts | 357° |
| 2026-05-05 00:16 | -11.00096 | -77.97148 | 28845 ft | 453 kts | 358° |
| 2026-05-05 00:16 | -10.96975 | -77.97268 | 29077 ft | 455 kts | 359° |
| 2026-05-05 00:16 | -10.93812 | -77.97385 | 29292 ft | 456 kts | 358° |
| 2026-05-05 00:17 | -10.90630 | -77.97512 | 29515 ft | 458 kts | 358° |
| 2026-05-05 00:17 | -10.87446 | -77.97653 | 29766 ft | 458 kts | 358° |
| 2026-05-05 00:17 | -10.84257 | -77.97805 | 30022 ft | 459 kts | 358° |
| 2026-05-05 00:17 | -10.81077 | -77.97965 | 30358 ft | 457 kts | 358° |
| 2026-05-05 00:18 | -10.77907 | -77.98128 | 30724 ft | 455 kts | 358° |
| 2026-05-05 00:18 | -10.74757 | -77.98290 | 31072 ft | 453 kts | 358° |
| 2026-05-05 00:18 | -10.71611 | -77.98452 | 31370 ft | 452 kts | 358° |
| 2026-05-05 00:18 | -10.68470 | -77.98613 | 31684 ft | 451 kts | 358° |
| 2026-05-05 00:19 | -10.65344 | -77.98774 | 32034 ft | 449 kts | 358° |
| 2026-05-05 00:19 | -10.62231 | -77.98934 | 32380 ft | 447 kts | 358° |
| 2026-05-05 00:19 | -10.59127 | -77.99091 | 32679 ft | 446 kts | 358° |
| 2026-05-05 00:19 | -10.56027 | -77.99249 | 32951 ft | 446 kts | 358° |
| 2026-05-05 00:20 | -10.52928 | -77.99407 | 33268 ft | 445 kts | 358° |
| 2026-05-05 00:20 | -10.49844 | -77.99564 | 33609 ft | 443 kts | 358° |
| 2026-05-05 00:20 | -10.46777 | -77.99721 | 33953 ft | 441 kts | 359° |
| 2026-05-05 00:20 | -10.43717 | -77.99877 | 34233 ft | 440 kts | 359° |
| 2026-05-05 00:21 | -10.40656 | -78.00033 | 34480 ft | 440 kts | 359° |
| 2026-05-05 00:21 | -10.37602 | -78.00188 | 34761 ft | 439 kts | 358° |
| 2026-05-05 00:21 | -10.34556 | -78.00343 | 35049 ft | 438 kts | 358° |
| 2026-05-05 00:21 | -10.31517 | -78.00498 | 35307 ft | 437 kts | 358° |
| 2026-05-05 00:22 | -10.28482 | -78.00653 | 35576 ft | 436 kts | 358° |
| 2026-05-05 00:22 | -10.25459 | -78.00807 | 35837 ft | 435 kts | 358° |
| 2026-05-05 00:22 | -10.22437 | -78.00960 | 36046 ft | 435 kts | 358° |
| 2026-05-05 00:23 | -10.16358 | -78.01268 | 36033 ft | 437 kts | 358° |
| 2026-05-05 00:23 | -10.10312 | -78.01571 | 36034 ft | 434 kts | 358° |
| 2026-05-05 00:24 | -10.04310 | -78.01872 | 36036 ft | 430 kts | 358° |
| 2026-05-05 00:24 | -9.98338 | -78.02173 | 36036 ft | 428 kts | 358° |
| 2026-05-05 00:25 | -9.92389 | -78.02472 | 36036 ft | 427 kts | 358° |
| 2026-05-05 00:25 | -9.86449 | -78.02770 | 36041 ft | 428 kts | 358° |
| 2026-05-05 00:26 | -9.80498 | -78.03068 | 36054 ft | 429 kts | 358° |
| 2026-05-05 00:26 | -9.74524 | -78.03367 | 36043 ft | 431 kts | 358° |
| 2026-05-05 00:27 | -9.68518 | -78.03669 | 36051 ft | 433 kts | 358° |
| 2026-05-05 00:27 | -9.62527 | -78.03977 | 36030 ft | 434 kts | 358° |
| 2026-05-05 00:28 | -9.56452 | -78.04256 | 36026 ft | 439 kts | 356° |
| 2026-05-05 00:28 | -9.50328 | -78.04586 | 36026 ft | 439 kts | 359° |
| 2026-05-05 00:29 | -9.44230 | -78.04863 | 36023 ft | 439 kts | 358° |
| 2026-05-05 00:29 | -9.38133 | -78.05184 | 36030 ft | 438 kts | 358° |
| 2026-05-05 00:30 | -9.32040 | -78.05493 | 36021 ft | 438 kts | 358° |
| 2026-05-05 00:30 | -9.25959 | -78.05799 | 36013 ft | 437 kts | 358° |
| 2026-05-05 00:31 | -9.19892 | -78.06102 | 36013 ft | 436 kts | 358° |
| 2026-05-05 00:31 | -9.13835 | -78.06404 | 36011 ft | 435 kts | 358° |
| 2026-05-05 00:32 | -9.07789 | -78.06706 | 36008 ft | 434 kts | 358° |
| 2026-05-05 00:32 | -9.01751 | -78.07009 | 36002 ft | 434 kts | 358° |
| 2026-05-05 00:33 | -8.95721 | -78.07310 | 36002 ft | 434 kts | 358° |
| 2026-05-05 00:33 | -8.89691 | -78.07610 | 35995 ft | 434 kts | 358° |
| 2026-05-05 00:34 | -8.83666 | -78.07911 | 35999 ft | 434 kts | 358° |
| 2026-05-05 00:34 | -8.77621 | -78.08212 | 35985 ft | 435 kts | 358° |
| 2026-05-05 00:35 | -8.71572 | -78.08513 | 35984 ft | 435 kts | 358° |
| 2026-05-05 00:35 | -8.65521 | -78.08816 | 35990 ft | 436 kts | 358° |
| 2026-05-05 00:36 | -8.59457 | -78.09119 | 35994 ft | 436 kts | 358° |
| 2026-05-05 00:36 | -8.53384 | -78.09418 | 35978 ft | 438 kts | 358° |
| 2026-05-05 00:37 | -8.47281 | -78.09722 | 35967 ft | 440 kts | 358° |
| 2026-05-05 00:37 | -8.41167 | -78.10027 | 35982 ft | 440 kts | 358° |
| 2026-05-05 00:38 | -8.35044 | -78.10331 | 35974 ft | 441 kts | 358° |
| 2026-05-05 00:38 | -8.28901 | -78.10638 | 35973 ft | 444 kts | 358° |
| 2026-05-05 00:39 | -8.22732 | -78.10945 | 35962 ft | 443 kts | 358° |
| 2026-05-05 00:39 | -8.16604 | -78.11251 | 35967 ft | 443 kts | 358° |
| 2026-05-05 00:40 | -8.10448 | -78.11555 | 35964 ft | 443 kts | 358° |
| 2026-05-05 00:40 | -8.04297 | -78.11858 | 35975 ft | 442 kts | 358° |
| 2026-05-05 00:41 | -7.98176 | -78.12159 | 36069 ft | 439 kts | 358° |
| 2026-05-05 00:41 | -7.92094 | -78.12459 | 36149 ft | 437 kts | 358° |
| 2026-05-05 00:42 | -7.86018 | -78.12759 | 36156 ft | 437 kts | 358° |
| 2026-05-05 00:42 | -7.79943 | -78.13058 | 36171 ft | 437 kts | 358° |
| 2026-05-05 00:43 | -7.73865 | -78.13357 | 36189 ft | 438 kts | 358° |
| 2026-05-05 00:43 | -7.67772 | -78.13657 | 36206 ft | 438 kts | 358° |
| 2026-05-05 00:44 | -7.61668 | -78.13959 | 36226 ft | 439 kts | 358° |
| 2026-05-05 00:44 | -7.55566 | -78.14256 | 36244 ft | 439 kts | 359° |
| 2026-05-05 00:45 | -7.49460 | -78.14558 | 36268 ft | 439 kts | 358° |
| 2026-05-05 00:45 | -7.43354 | -78.14861 | 36282 ft | 439 kts | 359° |
| 2026-05-05 00:46 | -7.37285 | -78.15160 | 36299 ft | 440 kts | 358° |
| 2026-05-05 00:46 | -7.31163 | -78.15461 | 36317 ft | 441 kts | 358° |
| 2026-05-05 00:47 | -7.25029 | -78.15762 | 36325 ft | 441 kts | 358° |
| 2026-05-05 00:47 | -7.18898 | -78.16064 | 36324 ft | 441 kts | 358° |
| 2026-05-05 00:48 | -7.12773 | -78.16365 | 36339 ft | 441 kts | 359° |
| 2026-05-05 00:48 | -7.06640 | -78.16667 | 36346 ft | 441 kts | 359° |
| 2026-05-05 00:49 | -7.00502 | -78.16967 | 36350 ft | 442 kts | 359° |
| 2026-05-05 00:49 | -6.94368 | -78.17268 | 36355 ft | 441 kts | 359° |
| 2026-05-05 00:50 | -6.88240 | -78.17570 | 36340 ft | 441 kts | 359° |
| 2026-05-05 00:50 | -6.82116 | -78.17871 | 36336 ft | 441 kts | 358° |
| 2026-05-05 00:51 | -6.75993 | -78.18171 | 36328 ft | 441 kts | 358° |
| 2026-05-05 00:51 | -6.69872 | -78.18472 | 36334 ft | 440 kts | 358° |
| 2026-05-05 00:52 | -6.63760 | -78.18772 | 36329 ft | 439 kts | 358° |
| 2026-05-05 00:52 | -6.57656 | -78.19073 | 36321 ft | 439 kts | 358° |
| 2026-05-05 00:53 | -6.51556 | -78.19370 | 36310 ft | 439 kts | 358° |
| 2026-05-05 00:53 | -6.45453 | -78.19671 | 36300 ft | 439 kts | 358° |
| 2026-05-05 00:54 | -6.39347 | -78.19970 | 36275 ft | 439 kts | 358° |
| 2026-05-05 00:54 | -6.33280 | -78.20267 | 36268 ft | 440 kts | 358° |
| 2026-05-05 00:55 | -6.27124 | -78.20568 | 36260 ft | 440 kts | 358° |
| 2026-05-05 00:55 | -6.21041 | -78.20866 | 36249 ft | 441 kts | 358° |
| 2026-05-05 00:56 | -6.14910 | -78.21167 | 36239 ft | 441 kts | 358° |
| 2026-05-05 00:56 | -6.08772 | -78.21468 | 36225 ft | 442 kts | 358° |
| 2026-05-05 00:57 | -6.02632 | -78.21769 | 36214 ft | 442 kts | 358° |
| 2026-05-05 00:57 | -5.96483 | -78.22071 | 36201 ft | 443 kts | 358° |
| 2026-05-05 00:58 | -5.90328 | -78.22373 | 36187 ft | 443 kts | 358° |
| 2026-05-05 00:58 | -5.84171 | -78.22674 | 36214 ft | 442 kts | 358° |
| 2026-05-05 00:59 | -5.78035 | -78.22973 | 36204 ft | 441 kts | 358° |
| 2026-05-05 00:59 | -5.71910 | -78.23272 | 36202 ft | 440 kts | 358° |
| 2026-05-05 01:00 | -5.65804 | -78.23570 | 36202 ft | 439 kts | 359° |
| 2026-05-05 01:00 | -5.60735 | -78.23818 | 36196 ft | 439 kts | 359° |
| 2026-05-05 01:01 | -5.54634 | -78.24117 | 36188 ft | 440 kts | 359° |
| 2026-05-05 01:01 | -5.48516 | -78.24416 | 36187 ft | 440 kts | 359° |
| 2026-05-05 01:02 | -5.42398 | -78.24716 | 36180 ft | 440 kts | 359° |
| 2026-05-05 01:02 | -5.36270 | -78.25016 | 36183 ft | 441 kts | 359° |
| 2026-05-05 01:03 | -5.30134 | -78.25314 | 36166 ft | 442 kts | 359° |
| 2026-05-05 01:03 | -5.23991 | -78.25613 | 36168 ft | 442 kts | 359° |
| 2026-05-05 01:04 | -5.17834 | -78.25915 | 36148 ft | 443 kts | 359° |
| 2026-05-05 01:04 | -5.08598 | -78.26366 | 36132 ft | 443 kts | 359° |
| 2026-05-05 01:05 | -5.02437 | -78.26665 | 36139 ft | 443 kts | 359° |
| 2026-05-05 01:05 | -4.96273 | -78.26966 | 36143 ft | 443 kts | 359° |
| 2026-05-05 01:06 | -4.90088 | -78.27268 | 36198 ft | 448 kts | 359° |
| 2026-05-05 01:06 | -4.86964 | -78.27420 | 36326 ft | 450 kts | 359° |
| 2026-05-05 01:06 | -4.83839 | -78.27574 | 36568 ft | 449 kts | 359° |
| 2026-05-05 01:07 | -4.80726 | -78.27726 | 36872 ft | 447 kts | 359° |
| 2026-05-05 01:07 | -4.77634 | -78.27878 | 37240 ft | 442 kts | 359° |
| 2026-05-05 01:07 | -4.74614 | -78.28024 | 37591 ft | 438 kts | 359° |
| 2026-05-05 01:07 | -4.71539 | -78.28173 | 37883 ft | 436 kts | 359° |
| 2026-05-05 01:08 | -4.68516 | -78.28321 | 38058 ft | 435 kts | 359° |
| 2026-05-05 01:08 | -4.65473 | -78.28469 | 38043 ft | 439 kts | 359° |
| 2026-05-05 01:08 | -4.59362 | -78.28767 | 38054 ft | 440 kts | 359° |
| 2026-05-05 01:09 | -4.53301 | -78.29063 | 38056 ft | 438 kts | 359° |
| 2026-05-05 01:09 | -4.47223 | -78.29359 | 38061 ft | 437 kts | 359° |
| 2026-05-05 01:10 | -4.41168 | -78.29654 | 38064 ft | 435 kts | 359° |
| 2026-05-05 01:10 | -4.35117 | -78.29949 | 38068 ft | 435 kts | 359° |
| 2026-05-05 01:11 | -4.29070 | -78.30243 | 38065 ft | 435 kts | 359° |
| 2026-05-05 01:11 | -4.23025 | -78.30537 | 38065 ft | 434 kts | 359° |
| 2026-05-05 01:12 | -4.16982 | -78.30830 | 38066 ft | 435 kts | 359° |
| 2026-05-05 01:12 | -4.10940 | -78.31125 | 38076 ft | 435 kts | 359° |
| 2026-05-05 01:13 | -4.04891 | -78.31421 | 38079 ft | 436 kts | 359° |
| 2026-05-05 01:13 | -3.98827 | -78.31715 | 38069 ft | 436 kts | 359° |
| 2026-05-05 01:14 | -3.92763 | -78.32010 | 38133 ft | 435 kts | 359° |
| 2026-05-05 01:14 | -3.86714 | -78.32303 | 38175 ft | 436 kts | 359° |
| 2026-05-05 01:15 | -3.80653 | -78.32599 | 38188 ft | 436 kts | 359° |
| 2026-05-05 01:15 | -3.74592 | -78.32894 | 38194 ft | 437 kts | 359° |
| 2026-05-05 01:16 | -3.68515 | -78.33190 | 38201 ft | 437 kts | 359° |
| 2026-05-05 01:16 | -3.62429 | -78.33487 | 38208 ft | 438 kts | 359° |
| 2026-05-05 01:17 | -3.56335 | -78.33782 | 38208 ft | 438 kts | 359° |
| 2026-05-05 01:17 | -3.50240 | -78.34078 | 38218 ft | 439 kts | 359° |
| 2026-05-05 01:18 | -3.44133 | -78.34378 | 38226 ft | 440 kts | 359° |
| 2026-05-05 01:18 | -3.38021 | -78.34682 | 38226 ft | 440 kts | 359° |
| 2026-05-05 01:19 | -3.31911 | -78.34987 | 38229 ft | 440 kts | 359° |
| 2026-05-05 01:19 | -3.25811 | -78.35289 | 38227 ft | 438 kts | 359° |
| 2026-05-05 01:20 | -3.19731 | -78.35587 | 38244 ft | 437 kts | 359° |
| 2026-05-05 01:20 | -3.13655 | -78.35886 | 38244 ft | 437 kts | 359° |
| 2026-05-05 01:21 | -3.07634 | -78.36184 | 38248 ft | 436 kts | 359° |
| 2026-05-05 01:21 | -3.01583 | -78.36480 | 38252 ft | 435 kts | 359° |
| 2026-05-05 01:22 | -2.95532 | -78.36778 | 38244 ft | 435 kts | 359° |
| 2026-05-05 01:22 | -2.89482 | -78.37079 | 38245 ft | 435 kts | 359° |
| 2026-05-05 01:23 | -2.83434 | -78.37380 | 38225 ft | 435 kts | 359° |
| 2026-05-05 01:23 | -2.77384 | -78.37678 | 38217 ft | 436 kts | 359° |
| 2026-05-05 01:24 | -2.71323 | -78.37978 | 38198 ft | 436 kts | 359° |
| 2026-05-05 01:24 | -2.65262 | -78.38275 | 38187 ft | 436 kts | 359° |
| 2026-05-05 01:25 | -2.59201 | -78.38575 | 38176 ft | 436 kts | 359° |
| 2026-05-05 01:25 | -2.53135 | -78.38877 | 38168 ft | 437 kts | 359° |
| 2026-05-05 01:26 | -2.47069 | -78.39176 | 38159 ft | 436 kts | 359° |
| 2026-05-05 01:26 | -2.41016 | -78.39473 | 38152 ft | 435 kts | 359° |
| 2026-05-05 01:27 | -2.34975 | -78.39770 | 38142 ft | 435 kts | 359° |
| 2026-05-05 01:27 | -2.28936 | -78.40068 | 38150 ft | 434 kts | 359° |
| 2026-05-05 01:28 | -2.22895 | -78.40367 | 38138 ft | 435 kts | 359° |
| 2026-05-05 01:28 | -2.16896 | -78.40662 | 38149 ft | 435 kts | 359° |
| 2026-05-05 01:29 | -2.10858 | -78.40961 | 38133 ft | 435 kts | 359° |
| 2026-05-05 01:29 | -2.04823 | -78.41259 | 38135 ft | 434 kts | 359° |
| 2026-05-05 01:30 | -1.98786 | -78.41556 | 38143 ft | 434 kts | 359° |
| 2026-05-05 01:30 | -1.92757 | -78.41853 | 38145 ft | 434 kts | 359° |
| 2026-05-05 01:31 | -1.86731 | -78.42150 | 38155 ft | 433 kts | 359° |
| 2026-05-05 01:31 | -1.80711 | -78.42447 | 38151 ft | 433 kts | 359° |
| 2026-05-05 01:32 | -1.74689 | -78.42744 | 38157 ft | 433 kts | 359° |
| 2026-05-05 01:32 | -1.68668 | -78.43041 | 38155 ft | 433 kts | 359° |
| 2026-05-05 01:33 | -1.62645 | -78.43338 | 38166 ft | 433 kts | 359° |
| 2026-05-05 01:33 | -1.56636 | -78.43632 | 38168 ft | 433 kts | 359° |
| 2026-05-05 01:34 | -1.50614 | -78.43930 | 38174 ft | 433 kts | 359° |
| 2026-05-05 01:34 | -1.44596 | -78.44228 | 38207 ft | 433 kts | 359° |
| 2026-05-05 01:35 | -1.38578 | -78.44523 | 38220 ft | 433 kts | 359° |
| 2026-05-05 01:35 | -1.32561 | -78.44819 | 38248 ft | 433 kts | 359° |
| 2026-05-05 01:36 | -1.26559 | -78.45117 | 38278 ft | 432 kts | 359° |
| 2026-05-05 01:36 | -1.20556 | -78.45413 | 38315 ft | 431 kts | 359° |
| 2026-05-05 01:37 | -1.14573 | -78.45707 | 38349 ft | 431 kts | 359° |
| 2026-05-05 01:37 | -1.08589 | -78.46001 | 38397 ft | 430 kts | 359° |
| 2026-05-05 01:38 | -1.02614 | -78.46291 | 38422 ft | 430 kts | 359° |
| 2026-05-05 01:38 | -0.96634 | -78.46579 | 38443 ft | 430 kts | 359° |
| 2026-05-05 01:39 | -0.90690 | -78.46869 | 38457 ft | 431 kts | 359° |
| 2026-05-05 01:39 | -0.84696 | -78.47162 | 38460 ft | 432 kts | 359° |
| 2026-05-05 01:40 | -0.78692 | -78.47455 | 38462 ft | 432 kts | 359° |
| 2026-05-05 01:40 | -0.72673 | -78.47748 | 38445 ft | 432 kts | 359° |
| 2026-05-05 01:41 | -0.66666 | -78.48043 | 38438 ft | 432 kts | 359° |
| 2026-05-05 01:41 | -0.60661 | -78.48334 | 38429 ft | 432 kts | 359° |
| 2026-05-05 01:42 | -0.54660 | -78.48624 | 38419 ft | 432 kts | 359° |
| 2026-05-05 01:42 | -0.48658 | -78.48916 | 38397 ft | 431 kts | 359° |
| 2026-05-05 01:43 | -0.42672 | -78.49207 | 38395 ft | 430 kts | 359° |
| 2026-05-05 01:43 | -0.36691 | -78.49499 | 38371 ft | 430 kts | 359° |
| 2026-05-05 01:44 | -0.30731 | -78.49790 | 38377 ft | 428 kts | 359° |
| 2026-05-05 01:44 | -0.24781 | -78.50080 | 38375 ft | 427 kts | 359° |
| 2026-05-05 01:45 | -0.18851 | -78.50369 | 38379 ft | 426 kts | 359° |
| 2026-05-05 01:45 | -0.13930 | -78.50607 | 38380 ft | 426 kts | 359° |
| 2026-05-05 01:46 | -0.08011 | -78.50895 | 38376 ft | 426 kts | 359° |
| 2026-05-05 01:46 | -0.02095 | -78.51241 | 38381 ft | 426 kts | 356° |
| 2026-05-05 01:47 | 0.03791 | -78.51982 | 38378 ft | 427 kts | 354° |
| 2026-05-05 01:47 | 0.09676 | -78.52805 | 38373 ft | 428 kts | 354° |
| 2026-05-05 01:48 | 0.15576 | -78.53593 | 38375 ft | 428 kts | 354° |
| 2026-05-05 01:48 | 0.21484 | -78.54356 | 38377 ft | 428 kts | 354° |
| 2026-05-05 01:49 | 0.27400 | -78.55116 | 38376 ft | 429 kts | 355° |
| 2026-05-05 01:49 | 0.33322 | -78.55878 | 38370 ft | 429 kts | 355° |
| 2026-05-05 01:50 | 0.39250 | -78.56641 | 38361 ft | 430 kts | 355° |
| 2026-05-05 01:50 | 0.45183 | -78.57404 | 38359 ft | 430 kts | 355° |
| 2026-05-05 01:51 | 0.51132 | -78.58172 | 38352 ft | 431 kts | 355° |
| 2026-05-05 01:51 | 0.57091 | -78.58944 | 38342 ft | 432 kts | 355° |
| 2026-05-05 01:52 | 0.63053 | -78.59716 | 38333 ft | 432 kts | 355° |
| 2026-05-05 01:52 | 0.69018 | -78.60490 | 38317 ft | 433 kts | 355° |
| 2026-05-05 01:53 | 0.74994 | -78.61265 | 38310 ft | 433 kts | 355° |
| 2026-05-05 01:53 | 0.80975 | -78.62041 | 38291 ft | 434 kts | 355° |
| 2026-05-05 01:54 | 0.86971 | -78.62817 | 38211 ft | 436 kts | 355° |
| 2026-05-05 01:54 | 0.92995 | -78.63598 | 38165 ft | 436 kts | 355° |
| 2026-05-05 01:55 | 0.99011 | -78.64378 | 38141 ft | 436 kts | 355° |
| 2026-05-05 01:55 | 1.04980 | -78.65154 | 38124 ft | 435 kts | 355° |
| 2026-05-05 01:56 | 1.10977 | -78.65931 | 38104 ft | 434 kts | 355° |
| 2026-05-05 01:56 | 1.16959 | -78.66707 | 38095 ft | 433 kts | 355° |
| 2026-05-05 01:57 | 1.22934 | -78.67481 | 38065 ft | 432 kts | 355° |
| 2026-05-05 01:57 | 1.28903 | -78.68255 | 38045 ft | 432 kts | 355° |
| 2026-05-05 01:58 | 1.34869 | -78.69026 | 38023 ft | 433 kts | 355° |
| 2026-05-05 01:58 | 1.40842 | -78.69767 | 37998 ft | 433 kts | 355° |
| 2026-05-05 01:59 | 1.46817 | -78.70500 | 37952 ft | 433 kts | 355° |
| 2026-05-05 01:59 | 1.52794 | -78.71238 | 37949 ft | 433 kts | 355° |
| 2026-05-05 02:00 | 1.58774 | -78.71981 | 37937 ft | 433 kts | 355° |
| 2026-05-05 02:00 | 1.64755 | -78.72720 | 37927 ft | 433 kts | 355° |
| 2026-05-05 02:01 | 1.70748 | -78.73465 | 37923 ft | 434 kts | 355° |
| 2026-05-05 02:01 | 1.76742 | -78.74210 | 37919 ft | 435 kts | 355° |
| 2026-05-05 02:02 | 1.82750 | -78.74952 | 37915 ft | 435 kts | 355° |
| 2026-05-05 02:02 | 1.88767 | -78.75652 | 37917 ft | 436 kts | 355° |
| 2026-05-05 02:03 | 1.94796 | -78.76338 | 37915 ft | 436 kts | 355° |
| 2026-05-05 02:03 | 2.00828 | -78.77029 | 37911 ft | 437 kts | 355° |
| 2026-05-05 02:04 | 2.06866 | -78.77722 | 37906 ft | 437 kts | 355° |
| 2026-05-05 02:04 | 2.12906 | -78.78417 | 37908 ft | 437 kts | 355° |
| 2026-05-05 02:05 | 2.18961 | -78.79115 | 37906 ft | 438 kts | 355° |
| 2026-05-05 02:05 | 2.25015 | -78.79813 | 37910 ft | 438 kts | 355° |
| 2026-05-05 02:06 | 2.31074 | -78.80510 | 37906 ft | 438 kts | 355° |
| 2026-05-05 02:06 | 2.37133 | -78.81208 | 37911 ft | 438 kts | 355° |
| 2026-05-05 02:07 | 2.43190 | -78.81906 | 37927 ft | 438 kts | 355° |
| 2026-05-05 02:07 | 2.49242 | -78.82604 | 37925 ft | 438 kts | 355° |
| 2026-05-05 02:08 | 2.55257 | -78.83298 | 37915 ft | 438 kts | 355° |
| 2026-05-05 02:08 | 2.61310 | -78.83998 | 37921 ft | 438 kts | 355° |
| 2026-05-05 02:09 | 2.67354 | -78.84695 | 37933 ft | 438 kts | 356° |
| 2026-05-05 02:09 | 2.73406 | -78.85390 | 37936 ft | 438 kts | 356° |
| 2026-05-05 02:10 | 2.79464 | -78.86088 | 37934 ft | 438 kts | 356° |
| 2026-05-05 02:10 | 2.85515 | -78.86785 | 37908 ft | 439 kts | 356° |
| 2026-05-05 02:11 | 2.91590 | -78.87486 | 37895 ft | 439 kts | 355° |
| 2026-05-05 02:11 | 2.97666 | -78.88185 | 37889 ft | 440 kts | 355° |
| 2026-05-05 02:12 | 3.06786 | -78.89240 | 37893 ft | 440 kts | 355° |
| 2026-05-05 02:13 | 3.12875 | -78.89945 | 37887 ft | 440 kts | 355° |
| 2026-05-05 02:13 | 3.18963 | -78.90647 | 37893 ft | 441 kts | 355° |
| 2026-05-05 02:14 | 3.25056 | -78.91349 | 37889 ft | 441 kts | 355° |
| 2026-05-05 02:14 | 3.31145 | -78.92051 | 37888 ft | 440 kts | 355° |
| 2026-05-05 02:15 | 3.37234 | -78.92754 | 37886 ft | 440 kts | 355° |
| 2026-05-05 02:15 | 3.43280 | -78.93453 | 37889 ft | 440 kts | 356° |
| 2026-05-05 02:16 | 3.49367 | -78.94156 | 37889 ft | 440 kts | 356° |
| 2026-05-05 02:16 | 3.55461 | -78.94858 | 37897 ft | 441 kts | 356° |
| 2026-05-05 02:17 | 3.61553 | -78.95562 | 37898 ft | 441 kts | 356° |
| 2026-05-05 02:17 | 3.67646 | -78.96267 | 37898 ft | 441 kts | 356° |
| 2026-05-05 02:18 | 3.73740 | -78.96971 | 37900 ft | 441 kts | 356° |
| 2026-05-05 02:18 | 3.79840 | -78.97676 | 37898 ft | 441 kts | 356° |
| 2026-05-05 02:19 | 3.85937 | -78.98380 | 37899 ft | 441 kts | 356° |
| 2026-05-05 02:19 | 3.92042 | -78.99086 | 37894 ft | 441 kts | 356° |
| 2026-05-05 02:20 | 3.98148 | -78.99790 | 37889 ft | 442 kts | 356° |
| 2026-05-05 02:20 | 4.04259 | -79.00498 | 37886 ft | 442 kts | 355° |
| 2026-05-05 02:21 | 4.10373 | -79.01205 | 37894 ft | 442 kts | 355° |
| 2026-05-05 02:21 | 4.16492 | -79.01913 | 37888 ft | 443 kts | 355° |
| 2026-05-05 02:22 | 4.22614 | -79.02624 | 37890 ft | 443 kts | 355° |
| 2026-05-05 02:22 | 4.28736 | -79.03331 | 37896 ft | 443 kts | 355° |
| 2026-05-05 02:23 | 4.34865 | -79.04040 | 37900 ft | 443 kts | 355° |
| 2026-05-05 02:23 | 4.40999 | -79.04749 | 37898 ft | 444 kts | 355° |
| 2026-05-05 02:24 | 4.47136 | -79.05462 | 37896 ft | 444 kts | 355° |
| 2026-05-05 02:24 | 4.53272 | -79.06172 | 37898 ft | 444 kts | 355° |
| 2026-05-05 02:25 | 4.59377 | -79.06877 | 37899 ft | 445 kts | 355° |
| 2026-05-05 02:25 | 4.65563 | -79.07593 | 37898 ft | 445 kts | 355° |
| 2026-05-05 02:26 | 4.71680 | -79.08302 | 37898 ft | 445 kts | 355° |
| 2026-05-05 02:26 | 4.77835 | -79.09016 | 37902 ft | 446 kts | 355° |
| 2026-05-05 02:27 | 4.84000 | -79.09730 | 37897 ft | 446 kts | 355° |
| 2026-05-05 02:27 | 4.90162 | -79.10445 | 37897 ft | 446 kts | 355° |
| 2026-05-05 02:28 | 4.96315 | -79.11158 | 37899 ft | 445 kts | 355° |
| 2026-05-05 02:28 | 5.02472 | -79.11871 | 37900 ft | 445 kts | 355° |
| 2026-05-05 02:29 | 5.08620 | -79.12583 | 37895 ft | 445 kts | 355° |
| 2026-05-05 02:29 | 5.14768 | -79.13296 | 37900 ft | 445 kts | 355° |
| 2026-05-05 02:30 | 5.20918 | -79.14010 | 37895 ft | 445 kts | 355° |
| 2026-05-05 02:30 | 5.27074 | -79.14724 | 37888 ft | 445 kts | 355° |
| 2026-05-05 02:31 | 5.33233 | -79.15440 | 37890 ft | 446 kts | 355° |
| 2026-05-05 02:31 | 5.39395 | -79.16154 | 37889 ft | 446 kts | 355° |
| 2026-05-05 02:32 | 5.45558 | -79.16870 | 37887 ft | 446 kts | 355° |
| 2026-05-05 02:32 | 5.51721 | -79.17585 | 37887 ft | 446 kts | 355° |
| 2026-05-05 02:33 | 5.56839 | -79.18180 | 37888 ft | 446 kts | 355° |
| 2026-05-05 02:33 | 5.63002 | -79.18897 | 37890 ft | 446 kts | 355° |
| 2026-05-05 02:34 | 5.69183 | -79.19616 | 37893 ft | 447 kts | 355° |
| 2026-05-05 02:34 | 5.76366 | -79.20450 | 37891 ft | 447 kts | 355° |
| 2026-05-05 02:35 | 5.81536 | -79.21049 | 37888 ft | 446 kts | 355° |
| 2026-05-05 02:35 | 5.87709 | -79.21768 | 37890 ft | 446 kts | 355° |
| 2026-05-05 02:36 | 5.93880 | -79.22486 | 37886 ft | 446 kts | 355° |
| 2026-05-05 02:36 | 6.00046 | -79.23211 | 37890 ft | 446 kts | 354° |
| 2026-05-05 02:37 | 6.06172 | -79.23937 | 37884 ft | 447 kts | 354° |
| 2026-05-05 02:37 | 6.12347 | -79.24671 | 37889 ft | 447 kts | 354° |
| 2026-05-05 02:38 | 6.18518 | -79.25405 | 37889 ft | 447 kts | 354° |
| 2026-05-05 02:38 | 6.24703 | -79.26137 | 37887 ft | 447 kts | 354° |
| 2026-05-05 02:39 | 6.30885 | -79.26870 | 37890 ft | 448 kts | 354° |
| 2026-05-05 02:39 | 6.37072 | -79.27604 | 37890 ft | 448 kts | 354° |
| 2026-05-05 02:40 | 6.43268 | -79.28339 | 37888 ft | 448 kts | 354° |
| 2026-05-05 02:40 | 6.46366 | -79.28707 | 37706 ft | 452 kts | 354° |
| 2026-05-05 02:40 | 6.49501 | -79.29079 | 37307 ft | 452 kts | 354° |
| 2026-05-05 02:40 | 6.52607 | -79.29448 | 36889 ft | 447 kts | 354° |
| 2026-05-05 02:41 | 6.55681 | -79.29813 | 36504 ft | 443 kts | 354° |
| 2026-05-05 02:41 | 6.58724 | -79.30175 | 36109 ft | 439 kts | 354° |
| 2026-05-05 02:41 | 6.61746 | -79.30534 | 35714 ft | 436 kts | 354° |
| 2026-05-05 02:41 | 6.64747 | -79.30891 | 35306 ft | 433 kts | 354° |
| 2026-05-05 02:42 | 6.67732 | -79.31245 | 34903 ft | 430 kts | 354° |
| 2026-05-05 02:42 | 6.70697 | -79.31597 | 34509 ft | 428 kts | 354° |
| 2026-05-05 02:42 | 6.73647 | -79.31948 | 34117 ft | 425 kts | 354° |
| 2026-05-05 02:42 | 6.76574 | -79.32296 | 33722 ft | 423 kts | 354° |
| 2026-05-05 02:43 | 6.79493 | -79.32642 | 33335 ft | 421 kts | 355° |
| 2026-05-05 02:43 | 6.82388 | -79.32986 | 32948 ft | 418 kts | 354° |
| 2026-05-05 02:43 | 6.85267 | -79.33328 | 32564 ft | 416 kts | 354° |
| 2026-05-05 02:43 | 6.88135 | -79.33668 | 32179 ft | 414 kts | 354° |
| 2026-05-05 02:44 | 6.90988 | -79.34007 | 31800 ft | 411 kts | 354° |
| 2026-05-05 02:44 | 6.93822 | -79.34344 | 31421 ft | 409 kts | 354° |
| 2026-05-05 02:44 | 6.96639 | -79.34679 | 31046 ft | 407 kts | 354° |
| 2026-05-05 02:44 | 6.99442 | -79.35013 | 30672 ft | 404 kts | 354° |
| 2026-05-05 02:45 | 7.02228 | -79.35344 | 30303 ft | 402 kts | 354° |
| 2026-05-05 02:45 | 7.04997 | -79.35674 | 29935 ft | 400 kts | 354° |
| 2026-05-05 02:45 | 7.07751 | -79.36002 | 29554 ft | 397 kts | 354° |
| 2026-05-05 02:45 | 7.10490 | -79.36328 | 29182 ft | 395 kts | 354° |
| 2026-05-05 02:46 | 7.13207 | -79.36651 | 28809 ft | 392 kts | 354° |
| 2026-05-05 02:46 | 7.15907 | -79.36973 | 28431 ft | 389 kts | 354° |
| 2026-05-05 02:46 | 7.18553 | -79.37285 | 28056 ft | 387 kts | 354° |
| 2026-05-05 02:46 | 7.21252 | -79.37607 | 27678 ft | 384 kts | 353° |
| 2026-05-05 02:47 | 7.23863 | -79.37919 | 27311 ft | 382 kts | 353° |
| 2026-05-05 02:47 | 7.26488 | -79.38232 | 26936 ft | 379 kts | 353° |
| 2026-05-05 02:47 | 7.29101 | -79.38543 | 26569 ft | 377 kts | 353° |
| 2026-05-05 02:47 | 7.31675 | -79.38930 | 26358 ft | 369 kts | 349° |
| 2026-05-05 02:48 | 7.34171 | -79.39442 | 26057 ft | 365 kts | 347° |
| 2026-05-05 02:48 | 7.36636 | -79.39998 | 25751 ft | 361 kts | 347° |
| 2026-05-05 02:48 | 7.39081 | -79.40558 | 25387 ft | 359 kts | 347° |
| 2026-05-05 02:48 | 7.41507 | -79.41110 | 25035 ft | 357 kts | 347° |
| 2026-05-05 02:49 | 7.43922 | -79.41652 | 24683 ft | 354 kts | 347° |
| 2026-05-05 02:49 | 7.46320 | -79.42183 | 24313 ft | 352 kts | 347° |
| 2026-05-05 02:49 | 7.48704 | -79.42707 | 23982 ft | 349 kts | 347° |
| 2026-05-05 02:49 | 7.51069 | -79.43223 | 23633 ft | 347 kts | 347° |
| 2026-05-05 02:50 | 7.53421 | -79.43736 | 23281 ft | 345 kts | 347° |
| 2026-05-05 02:50 | 7.55757 | -79.44245 | 22935 ft | 343 kts | 347° |
| 2026-05-05 02:50 | 7.58082 | -79.44751 | 22588 ft | 340 kts | 347° |
| 2026-05-05 02:50 | 7.60388 | -79.45253 | 22243 ft | 339 kts | 347° |
| 2026-05-05 02:51 | 7.62686 | -79.45753 | 21898 ft | 337 kts | 348° |
| 2026-05-05 02:51 | 7.64970 | -79.46249 | 21557 ft | 335 kts | 348° |
| 2026-05-05 02:51 | 7.67241 | -79.46742 | 21219 ft | 333 kts | 348° |
| 2026-05-05 02:51 | 7.69505 | -79.47235 | 20880 ft | 332 kts | 348° |
| 2026-05-05 02:52 | 7.71754 | -79.47726 | 20541 ft | 330 kts | 348° |
| 2026-05-05 02:52 | 7.73995 | -79.48213 | 20202 ft | 329 kts | 348° |
| 2026-05-05 02:52 | 7.76229 | -79.48699 | 19863 ft | 327 kts | 348° |
| 2026-05-05 02:52 | 7.78450 | -79.49183 | 19529 ft | 326 kts | 349° |
| 2026-05-05 02:53 | 7.80661 | -79.49665 | 19197 ft | 325 kts | 349° |
| 2026-05-05 02:53 | 7.82865 | -79.50144 | 18862 ft | 323 kts | 349° |
| 2026-05-05 02:53 | 7.85062 | -79.50622 | 18529 ft | 322 kts | 349° |
| 2026-05-05 02:53 | 7.87245 | -79.51097 | 18249 ft | 319 kts | 349° |
| 2026-05-05 02:54 | 7.89412 | -79.51569 | 17940 ft | 318 kts | 349° |
| 2026-05-05 02:54 | 7.91571 | -79.52039 | 17619 ft | 316 kts | 350° |
| 2026-05-05 02:54 | 7.93716 | -79.52506 | 17303 ft | 315 kts | 350° |
| 2026-05-05 02:54 | 7.95857 | -79.52972 | 16985 ft | 314 kts | 350° |
| 2026-05-05 02:55 | 7.97987 | -79.53436 | 16669 ft | 313 kts | 349° |
| 2026-05-05 02:55 | 8.00113 | -79.53899 | 16348 ft | 312 kts | 349° |
| 2026-05-05 02:55 | 8.02231 | -79.54360 | 16027 ft | 311 kts | 349° |
| 2026-05-05 02:55 | 8.04311 | -79.54814 | 15713 ft | 310 kts | 349° |
| 2026-05-05 02:56 | 8.06416 | -79.55273 | 15394 ft | 308 kts | 349° |
| 2026-05-05 02:56 | 8.08513 | -79.55692 | 15073 ft | 306 kts | 355° |
| 2026-05-05 02:56 | 8.10632 | -79.55793 | 14747 ft | 304 kts | 2° |
| 2026-05-05 02:56 | 8.12745 | -79.55751 | 14424 ft | 303 kts | 3° |
| 2026-05-05 02:57 | 8.14851 | -79.55682 | 14104 ft | 302 kts | 4° |
| 2026-05-05 02:57 | 8.16949 | -79.55617 | 13787 ft | 301 kts | 3° |
| 2026-05-05 02:57 | 8.19042 | -79.55563 | 13473 ft | 300 kts | 3° |
| 2026-05-05 02:57 | 8.21124 | -79.55518 | 13163 ft | 299 kts | 3° |
| 2026-05-05 02:58 | 8.23198 | -79.55480 | 12853 ft | 298 kts | 2° |
| 2026-05-05 02:58 | 8.25263 | -79.55447 | 12545 ft | 296 kts | 2° |
| 2026-05-05 02:58 | 8.27322 | -79.55418 | 12233 ft | 295 kts | 2° |
| 2026-05-05 02:58 | 8.29372 | -79.55389 | 11929 ft | 294 kts | 2° |
| 2026-05-05 02:59 | 8.31409 | -79.55362 | 11618 ft | 292 kts | 2° |
| 2026-05-05 02:59 | 8.33441 | -79.55335 | 11319 ft | 292 kts | 2° |
| 2026-05-05 02:59 | 8.35466 | -79.55309 | 11014 ft | 290 kts | 2° |
| 2026-05-05 02:59 | 8.37482 | -79.55283 | 10711 ft | 289 kts | 2° |
| 2026-05-05 03:00 | 8.39483 | -79.55257 | 10408 ft | 288 kts | 2° |
| 2026-05-05 03:00 | 8.41480 | -79.55232 | 10143 ft | 285 kts | 2° |
| 2026-05-05 03:00 | 8.43432 | -79.55207 | 10025 ft | 277 kts | 2° |
| 2026-05-05 03:00 | 8.45345 | -79.55183 | 9768 ft | 275 kts | 2° |
| 2026-05-05 03:01 | 8.47252 | -79.55158 | 9498 ft | 273 kts | 2° |
| 2026-05-05 03:01 | 8.49147 | -79.55135 | 9222 ft | 272 kts | 1° |
| 2026-05-05 03:01 | 8.51035 | -79.55110 | 8950 ft | 271 kts | 1° |
| 2026-05-05 03:01 | 8.52905 | -79.55087 | 8679 ft | 269 kts | 1° |
| 2026-05-05 03:02 | 8.54776 | -79.55063 | 8396 ft | 269 kts | 1° |
| 2026-05-05 03:02 | 8.56641 | -79.55040 | 8182 ft | 265 kts | 1° |
| 2026-05-05 03:02 | 8.58457 | -79.55017 | 8061 ft | 258 kts | 1° |
| 2026-05-05 03:02 | 8.60235 | -79.54994 | 7861 ft | 255 kts | 1° |
| 2026-05-05 03:03 | 8.62019 | -79.54971 | 7604 ft | 258 kts | 1° |
| 2026-05-05 03:03 | 8.63825 | -79.54948 | 7339 ft | 261 kts | 1° |
| 2026-05-05 03:03 | 8.65644 | -79.54924 | 7055 ft | 261 kts | 1° |
| 2026-05-05 03:03 | 8.67460 | -79.54902 | 6775 ft | 261 kts | 1° |
| 2026-05-05 03:04 | 8.69276 | -79.54878 | 6499 ft | 260 kts | 1° |
| 2026-05-05 03:04 | 8.71084 | -79.54854 | 6214 ft | 259 kts | 1° |
| 2026-05-05 03:04 | 8.72716 | -79.54834 | 5967 ft | 259 kts | 1° |
| 2026-05-05 03:04 | 8.74123 | -79.54816 | 5752 ft | 259 kts | 1° |
| 2026-05-05 03:05 | 8.75726 | -79.54796 | 5504 ft | 258 kts | 1° |
| 2026-05-05 03:05 | 8.77519 | -79.54773 | 5227 ft | 257 kts | 1° |
| 2026-05-05 03:05 | 8.79304 | -79.54751 | 4951 ft | 256 kts | 2° |
| 2026-05-05 03:05 | 8.81001 | -79.54374 | 4653 ft | 254 kts | 28° |
| 2026-05-05 03:06 | 8.82445 | -79.53368 | 4416 ft | 251 kts | 38° |
| 2026-05-05 03:06 | 8.83820 | -79.52284 | 4141 ft | 250 kts | 38° |
| 2026-05-05 03:06 | 8.85186 | -79.51209 | 3875 ft | 248 kts | 38° |
| 2026-05-05 03:06 | 8.86549 | -79.50141 | 3610 ft | 247 kts | 38° |
| 2026-05-05 03:07 | 8.87901 | -79.49086 | 3341 ft | 246 kts | 38° |
| 2026-05-05 03:07 | 8.89265 | -79.48045 | 3088 ft | 245 kts | 33° |
| 2026-05-05 03:07 | 8.90696 | -79.47205 | 3021 ft | 231 kts | 29° |
| 2026-05-05 03:07 | 8.92060 | -79.46451 | 2921 ft | 216 kts | 29° |
| 2026-05-05 03:08 | 8.93332 | -79.45746 | 2791 ft | 202 kts | 30° |
| 2026-05-05 03:08 | 8.94515 | -79.45078 | 2686 ft | 187 kts | 31° |
| 2026-05-05 03:08 | 8.95617 | -79.44457 | 2412 ft | 179 kts | 30° |
| 2026-05-05 03:08 | 8.96755 | -79.43855 | 1861 ft | 187 kts | 29° |
| 2026-05-05 03:09 | 8.97872 | -79.43224 | 1543 ft | 181 kts | 30° |
| 2026-05-05 03:09 | 8.98910 | -79.42573 | 1306 ft | 173 kts | 33° |
| 2026-05-05 03:09 | 8.99908 | -79.41971 | 1166 ft | 162 kts | 27° |
| 2026-05-05 03:09 | 9.00885 | -79.41459 | 944 ft | 155 kts | 27° |
| 2026-05-05 03:10 | 9.01808 | -79.40954 | 704 ft | 150 kts | 31° |
| 2026-05-05 03:10 | 9.02713 | -79.40434 | 490 ft | 150 kts | 27° |
| 2026-05-05 03:10 | 9.03617 | -79.39918 | 310 ft | 150 kts | 29° |
| 2026-05-05 03:10 | 9.04522 | -79.39398 | 136 ft | 149 kts | 29° |
| 2026-05-05 03:11 | 9.05407 | -79.38889 | 47 ft | 140 kts | 30° |
| 2026-05-05 03:11 | 9.06102 | -79.38497 | 46 ft | 83 kts | 29° |
| 2026-05-05 03:11 | 9.06447 | -79.38303 | 45 ft | 45 kts | 29° |
| 2026-05-05 03:11 | 9.06708 | -79.38151 | 45 ft | 42 kts | 29° |
| 2026-05-05 03:12 | 9.06921 | -79.38031 | 46 ft | 27 kts | 28° |
| 2026-05-05 03:12 | 9.07077 | -79.37944 | 46 ft | 19 kts | 29° |
| 2026-05-05 03:12 | 9.07171 | -79.37954 | 46 ft | 15 kts | 309° |
| 2026-05-05 03:12 | 9.07207 | -79.38047 | 49 ft | 14 kts | 255° |
| 2026-05-05 03:13 | 9.07133 | -79.38106 | 49 ft | 14 kts | 211° |
| 2026-05-05 03:13 | 9.07051 | -79.38150 | 47 ft | 13 kts | 208° |
| 2026-05-05 03:13 | 9.06973 | -79.38194 | 46 ft | 13 kts | 210° |
| 2026-05-05 03:13 | 9.06898 | -79.38237 | 46 ft | 12 kts | 210° |
| 2026-05-05 03:14 | 9.06824 | -79.38280 | 47 ft | 12 kts | 210° |
| 2026-05-05 03:14 | 9.06752 | -79.38321 | 47 ft | 12 kts | 209° |
| 2026-05-05 03:14 | 9.06682 | -79.38359 | 46 ft | 11 kts | 209° |
| 2026-05-05 03:14 | 9.06614 | -79.38398 | 46 ft | 11 kts | 210° |
| 2026-05-05 03:15 | 9.06548 | -79.38436 | 47 ft | 11 kts | 208° |
| 2026-05-05 03:15 | 9.06483 | -79.38472 | 47 ft | 10 kts | 208° |
| 2026-05-05 03:15 | 9.06420 | -79.38508 | 47 ft | 10 kts | 210° |
| 2026-05-05 03:15 | 9.06361 | -79.38542 | 48 ft | 10 kts | 209° |
| 2026-05-05 03:16 | 9.06306 | -79.38582 | 48 ft | 9 kts | 237° |
| 2026-05-05 03:16 | 9.06315 | -79.38641 | 44 ft | 9 kts | 297° |
| 2026-05-05 03:16 | 9.06344 | -79.38693 | 45 ft | 8 kts | 301° |
| 2026-05-05 03:16 | 9.06377 | -79.38740 | 49 ft | 8 kts | 319° |
| 2026-05-05 03:17 | 9.06415 | -79.38778 | 49 ft | 8 kts | 294° |
| 2026-05-05 03:17 | 9.06415 | -79.38831 | 46 ft | 8 kts | 264° |
| 2026-05-05 03:17 | 9.06411 | -79.38872 | 48 ft | 2 kts | 265° |
| 2026-05-05 03:17 | 9.06410 | -79.38881 | 48 ft | 0 kts | 264° |